sensor_id;sensor_type;location;lat;lon;timestamp;P1;durP1;ratioP1;P2;durP2;ratioP2
57225;SDS011;43082;43.568;22.256;2024-03-23T00:53:05;23.33;;;14.77;;
57225;SDS011;43082;43.568;22.256;2024-03-23T00:55:32;27.65;;;19.77;;
57225;SDS011;43082;43.568;22.256;2024-03-23T00:57:57;25.98;;;18.90;;
57225;SDS011;43082;43.568;22.256;2024-03-23T01:00:22;26.77;;;18.55;;
57225;SDS011;43082;43.568;22.256;2024-03-23T01:02:48;35.25;;;21.48;;
57225;SDS011;43082;43.568;22.256;2024-03-23T01:05:13;37.53;;;22.88;;
57225;SDS011;43082;43.568;22.256;2024-03-23T01:07:39;31.20;;;21.23;;
57225;SDS011;43082;43.568;22.256;2024-03-23T01:10:04;29.20;;;19.10;;
57225;SDS011;43082;43.568;22.256;2024-03-23T01:12:30;30.45;;;19.10;;
57225;SDS011;43082;43.568;22.256;2024-03-23T01:14:56;31.30;;;21.05;;
57225;SDS011;43082;43.568;22.256;2024-03-23T01:17:21;30.50;;;21.27;;
57225;SDS011;43082;43.568;22.256;2024-03-23T01:19:46;29.00;;;18.88;;
57225;SDS011;43082;43.568;22.256;2024-03-23T01:22:12;27.38;;;17.45;;
57225;SDS011;43082;43.568;22.256;2024-03-23T01:24:37;31.00;;;18.98;;
57225;SDS011;43082;43.568;22.256;2024-03-23T01:27:03;32.65;;;20.02;;
57225;SDS011;43082;43.568;22.256;2024-03-23T01:29:29;29.80;;;18.60;;
57225;SDS011;43082;43.568;22.256;2024-03-23T01:31:54;32.85;;;21.00;;
57225;SDS011;43082;43.568;22.256;2024-03-23T01:34:20;32.55;;;21.30;;
57225;SDS011;43082;43.568;22.256;2024-03-23T01:36:46;25.15;;;17.23;;
57225;SDS011;43082;43.568;22.256;2024-03-23T01:39:12;23.80;;;15.32;;
57225;SDS011;43082;43.568;22.256;2024-03-23T01:41:38;20.30;;;13.30;;
57225;SDS011;43082;43.568;22.256;2024-03-23T01:44:07;23.58;;;14.68;;
57225;SDS011;43082;43.568;22.256;2024-03-23T01:46:33;28.20;;;18.35;;
57225;SDS011;43082;43.568;22.256;2024-03-23T01:49:02;26.10;;;16.02;;
57225;SDS011;43082;43.568;22.256;2024-03-23T01:51:28;28.65;;;15.95;;
57225;SDS011;43082;43.568;22.256;2024-03-23T01:53:54;27.40;;;17.25;;
57225;SDS011;43082;43.568;22.256;2024-03-23T01:56:20;29.63;;;18.70;;
57225;SDS011;43082;43.568;22.256;2024-03-23T01:58:45;32.00;;;20.10;;
57225;SDS011;43082;43.568;22.256;2024-03-23T02:01:11;31.13;;;20.23;;
57225;SDS011;43082;43.568;22.256;2024-03-23T02:03:37;31.92;;;18.27;;
57225;SDS011;43082;43.568;22.256;2024-03-23T02:06:02;24.48;;;14.65;;
57225;SDS011;43082;43.568;22.256;2024-03-23T02:08:28;24.25;;;14.90;;
57225;SDS011;43082;43.568;22.256;2024-03-23T02:10:54;24.40;;;15.57;;
57225;SDS011;43082;43.568;22.256;2024-03-23T02:13:20;26.20;;;16.35;;
57225;SDS011;43082;43.568;22.256;2024-03-23T02:15:45;26.02;;;17.10;;
57225;SDS011;43082;43.568;22.256;2024-03-23T02:18:11;32.03;;;20.88;;
57225;SDS011;43082;43.568;22.256;2024-03-23T02:20:36;25.30;;;17.02;;
57225;SDS011;43082;43.568;22.256;2024-03-23T02:23:03;20.65;;;13.20;;
57225;SDS011;43082;43.568;22.256;2024-03-23T02:25:31;18.40;;;11.15;;
57225;SDS011;43082;43.568;22.256;2024-03-23T02:27:57;18.38;;;10.20;;
57225;SDS011;43082;43.568;22.256;2024-03-23T02:30:23;18.08;;;11.40;;
57225;SDS011;43082;43.568;22.256;2024-03-23T02:32:50;20.77;;;12.95;;
57225;SDS011;43082;43.568;22.256;2024-03-23T02:35:15;20.60;;;11.65;;
57225;SDS011;43082;43.568;22.256;2024-03-23T02:37:41;24.08;;;15.43;;
57225;SDS011;43082;43.568;22.256;2024-03-23T02:40:06;23.40;;;13.88;;
57225;SDS011;43082;43.568;22.256;2024-03-23T02:42:32;26.00;;;15.48;;
57225;SDS011;43082;43.568;22.256;2024-03-23T02:44:58;25.85;;;16.90;;
57225;SDS011;43082;43.568;22.256;2024-03-23T02:47:23;29.50;;;20.45;;
57225;SDS011;43082;43.568;22.256;2024-03-23T02:49:49;20.85;;;13.80;;
57225;SDS011;43082;43.568;22.256;2024-03-23T02:52:14;21.52;;;14.20;;
57225;SDS011;43082;43.568;22.256;2024-03-23T02:54:40;21.50;;;12.80;;
57225;SDS011;43082;43.568;22.256;2024-03-23T02:57:09;28.75;;;18.13;;
57225;SDS011;43082;43.568;22.256;2024-03-23T02:59:36;34.03;;;19.90;;
57225;SDS011;43082;43.568;22.256;2024-03-23T03:02:01;19.98;;;12.70;;
57225;SDS011;43082;43.568;22.256;2024-03-23T03:04:26;28.75;;;16.48;;
57225;SDS011;43082;43.568;22.256;2024-03-23T03:06:52;25.15;;;15.73;;
57225;SDS011;43082;43.568;22.256;2024-03-23T03:09:17;34.58;;;20.38;;
57225;SDS011;43082;43.568;22.256;2024-03-23T03:11:43;22.40;;;13.82;;
57225;SDS011;43082;43.568;22.256;2024-03-23T03:14:08;22.33;;;13.05;;
57225;SDS011;43082;43.568;22.256;2024-03-23T03:16:34;20.02;;;11.82;;
57225;SDS011;43082;43.568;22.256;2024-03-23T03:18:59;20.60;;;12.63;;
57225;SDS011;43082;43.568;22.256;2024-03-23T03:21:25;22.52;;;12.27;;
57225;SDS011;43082;43.568;22.256;2024-03-23T03:23:50;21.75;;;12.68;;
57225;SDS011;43082;43.568;22.256;2024-03-23T03:26:16;20.50;;;12.38;;
57225;SDS011;43082;43.568;22.256;2024-03-23T03:28:42;19.05;;;11.35;;
57225;SDS011;43082;43.568;22.256;2024-03-23T03:31:08;14.82;;;9.70;;
57225;SDS011;43082;43.568;22.256;2024-03-23T03:33:33;15.95;;;9.43;;
57225;SDS011;43082;43.568;22.256;2024-03-23T03:35:59;19.38;;;11.23;;
57225;SDS011;43082;43.568;22.256;2024-03-23T03:38:24;21.98;;;13.63;;
57225;SDS011;43082;43.568;22.256;2024-03-23T03:40:50;17.50;;;10.70;;
57225;SDS011;43082;43.568;22.256;2024-03-23T03:43:15;15.25;;;9.80;;
57225;SDS011;43082;43.568;22.256;2024-03-23T03:45:40;17.33;;;10.48;;
57225;SDS011;43082;43.568;22.256;2024-03-23T03:48:06;21.08;;;12.93;;
57225;SDS011;43082;43.568;22.256;2024-03-23T03:50:32;23.13;;;13.80;;
57225;SDS011;43082;43.568;22.256;2024-03-23T03:52:57;20.15;;;13.18;;
57225;SDS011;43082;43.568;22.256;2024-03-23T03:55:23;23.92;;;14.73;;
57225;SDS011;43082;43.568;22.256;2024-03-23T03:57:48;24.23;;;14.15;;
57225;SDS011;43082;43.568;22.256;2024-03-23T04:00:14;19.23;;;11.55;;
57225;SDS011;43082;43.568;22.256;2024-03-23T04:02:39;23.70;;;14.13;;
57225;SDS011;43082;43.568;22.256;2024-03-23T04:05:05;23.17;;;14.55;;
57225;SDS011;43082;43.568;22.256;2024-03-23T04:07:31;24.20;;;15.20;;
57225;SDS011;43082;43.568;22.256;2024-03-23T04:09:57;25.55;;;13.63;;
57225;SDS011;43082;43.568;22.256;2024-03-23T04:12:23;20.08;;;11.55;;
57225;SDS011;43082;43.568;22.256;2024-03-23T04:14:48;17.92;;;10.88;;
57225;SDS011;43082;43.568;22.256;2024-03-23T04:17:14;17.48;;;10.43;;
57225;SDS011;43082;43.568;22.256;2024-03-23T04:19:39;19.10;;;11.93;;
57225;SDS011;43082;43.568;22.256;2024-03-23T04:22:06;19.08;;;11.00;;
57225;SDS011;43082;43.568;22.256;2024-03-23T04:24:31;18.42;;;10.88;;
57225;SDS011;43082;43.568;22.256;2024-03-23T04:26:56;17.88;;;11.02;;
57225;SDS011;43082;43.568;22.256;2024-03-23T04:29:22;23.13;;;12.70;;
57225;SDS011;43082;43.568;22.256;2024-03-23T04:31:48;22.77;;;14.38;;
57225;SDS011;43082;43.568;22.256;2024-03-23T04:34:13;24.15;;;15.57;;
57225;SDS011;43082;43.568;22.256;2024-03-23T04:36:39;22.80;;;14.90;;
57225;SDS011;43082;43.568;22.256;2024-03-23T04:39:05;27.27;;;17.63;;
57225;SDS011;43082;43.568;22.256;2024-03-23T04:41:33;22.80;;;14.98;;
57225;SDS011;43082;43.568;22.256;2024-03-23T04:43:59;25.42;;;15.95;;
57225;SDS011;43082;43.568;22.256;2024-03-23T04:46:24;34.30;;;23.25;;
57225;SDS011;43082;43.568;22.256;2024-03-23T04:48:50;27.90;;;17.23;;
57225;SDS011;43082;43.568;22.256;2024-03-23T04:51:24;22.13;;;14.43;;
57225;SDS011;43082;43.568;22.256;2024-03-23T04:53:50;18.70;;;12.23;;
57225;SDS011;43082;43.568;22.256;2024-03-23T04:56:16;18.35;;;11.18;;
57225;SDS011;43082;43.568;22.256;2024-03-23T04:58:42;16.25;;;8.63;;
57225;SDS011;43082;43.568;22.256;2024-03-23T05:01:07;18.33;;;10.25;;
57225;SDS011;43082;43.568;22.256;2024-03-23T05:03:33;17.08;;;10.27;;
57225;SDS011;43082;43.568;22.256;2024-03-23T05:05:58;17.60;;;10.57;;
57225;SDS011;43082;43.568;22.256;2024-03-23T05:08:24;21.05;;;11.48;;
57225;SDS011;43082;43.568;22.256;2024-03-23T05:10:49;20.35;;;12.70;;
57225;SDS011;43082;43.568;22.256;2024-03-23T05:13:15;20.75;;;13.38;;
57225;SDS011;43082;43.568;22.256;2024-03-23T05:15:40;21.50;;;14.18;;
57225;SDS011;43082;43.568;22.256;2024-03-23T05:18:05;22.10;;;13.70;;
57225;SDS011;43082;43.568;22.256;2024-03-23T05:20:31;22.73;;;13.73;;
57225;SDS011;43082;43.568;22.256;2024-03-23T05:22:57;22.48;;;14.48;;
57225;SDS011;43082;43.568;22.256;2024-03-23T05:25:22;27.58;;;15.35;;
57225;SDS011;43082;43.568;22.256;2024-03-23T05:27:48;23.08;;;14.80;;
57225;SDS011;43082;43.568;22.256;2024-03-23T05:30:14;20.40;;;13.38;;
57225;SDS011;43082;43.568;22.256;2024-03-23T05:32:39;30.58;;;18.13;;
57225;SDS011;43082;43.568;22.256;2024-03-23T05:35:07;30.80;;;18.50;;
57225;SDS011;43082;43.568;22.256;2024-03-23T05:37:33;27.25;;;18.67;;
57225;SDS011;43082;43.568;22.256;2024-03-23T05:40:02;33.05;;;19.70;;
57225;SDS011;43082;43.568;22.256;2024-03-23T05:42:28;32.65;;;21.88;;
57225;SDS011;43082;43.568;22.256;2024-03-23T05:44:54;34.95;;;22.63;;
57225;SDS011;43082;43.568;22.256;2024-03-23T05:47:20;31.20;;;21.38;;
57225;SDS011;43082;43.568;22.256;2024-03-23T05:49:45;30.52;;;20.13;;
57225;SDS011;43082;43.568;22.256;2024-03-23T05:52:11;39.33;;;24.60;;
57225;SDS011;43082;43.568;22.256;2024-03-23T05:54:36;40.28;;;24.60;;
57225;SDS011;43082;43.568;22.256;2024-03-23T05:57:02;42.85;;;27.77;;
57225;SDS011;43082;43.568;22.256;2024-03-23T05:59:28;39.97;;;24.70;;
57225;SDS011;43082;43.568;22.256;2024-03-23T06:01:53;39.05;;;27.70;;
57225;SDS011;43082;43.568;22.256;2024-03-23T06:04:19;45.13;;;32.65;;
57225;SDS011;43082;43.568;22.256;2024-03-23T06:06:45;43.25;;;31.40;;
57225;SDS011;43082;43.568;22.256;2024-03-23T06:09:10;48.13;;;32.67;;
57225;SDS011;43082;43.568;22.256;2024-03-23T06:11:36;52.95;;;34.60;;
57225;SDS011;43082;43.568;22.256;2024-03-23T06:14:01;62.78;;;37.13;;
57225;SDS011;43082;43.568;22.256;2024-03-23T06:16:27;65.57;;;39.08;;
57225;SDS011;43082;43.568;22.256;2024-03-23T06:18:53;53.42;;;32.53;;
57225;SDS011;43082;43.568;22.256;2024-03-23T06:21:20;37.72;;;26.15;;
57225;SDS011;43082;43.568;22.256;2024-03-23T06:23:45;39.33;;;26.80;;
57225;SDS011;43082;43.568;22.256;2024-03-23T06:26:19;37.53;;;25.05;;
57225;SDS011;43082;43.568;22.256;2024-03-23T06:28:48;36.08;;;24.60;;
57225;SDS011;43082;43.568;22.256;2024-03-23T06:31:14;35.00;;;24.73;;
57225;SDS011;43082;43.568;22.256;2024-03-23T06:33:39;31.27;;;22.15;;
57225;SDS011;43082;43.568;22.256;2024-03-23T06:36:08;37.38;;;25.45;;
57225;SDS011;43082;43.568;22.256;2024-03-23T06:38:34;39.83;;;28.42;;
57225;SDS011;43082;43.568;22.256;2024-03-23T06:41:02;37.83;;;26.30;;
57225;SDS011;43082;43.568;22.256;2024-03-23T06:43:28;42.55;;;27.70;;
57225;SDS011;43082;43.568;22.256;2024-03-23T06:45:53;43.33;;;28.27;;
57225;SDS011;43082;43.568;22.256;2024-03-23T06:48:19;43.10;;;27.67;;
57225;SDS011;43082;43.568;22.256;2024-03-23T06:50:45;43.03;;;26.65;;
57225;SDS011;43082;43.568;22.256;2024-03-23T06:53:12;50.25;;;31.20;;
57225;SDS011;43082;43.568;22.256;2024-03-23T06:55:37;56.42;;;36.53;;
57225;SDS011;43082;43.568;22.256;2024-03-23T06:58:03;53.75;;;36.53;;
57225;SDS011;43082;43.568;22.256;2024-03-23T07:00:29;38.33;;;26.40;;
57225;SDS011;43082;43.568;22.256;2024-03-23T07:02:54;44.35;;;26.98;;
57225;SDS011;43082;43.568;22.256;2024-03-23T07:05:20;42.42;;;26.63;;
57225;SDS011;43082;43.568;22.256;2024-03-23T07:07:45;40.80;;;26.80;;
57225;SDS011;43082;43.568;22.256;2024-03-23T07:10:11;51.53;;;34.78;;
57225;SDS011;43082;43.568;22.256;2024-03-23T07:12:36;48.85;;;33.05;;
57225;SDS011;43082;43.568;22.256;2024-03-23T07:15:02;41.80;;;27.42;;
57225;SDS011;43082;43.568;22.256;2024-03-23T07:17:28;37.60;;;27.23;;
57225;SDS011;43082;43.568;22.256;2024-03-23T07:19:53;41.33;;;29.48;;
57225;SDS011;43082;43.568;22.256;2024-03-23T07:22:19;46.20;;;30.83;;
57225;SDS011;43082;43.568;22.256;2024-03-23T07:24:44;50.10;;;34.17;;
57225;SDS011;43082;43.568;22.256;2024-03-23T07:27:10;47.33;;;30.10;;
57225;SDS011;43082;43.568;22.256;2024-03-23T07:29:35;42.03;;;30.17;;
57225;SDS011;43082;43.568;22.256;2024-03-23T07:32:01;35.97;;;25.27;;
57225;SDS011;43082;43.568;22.256;2024-03-23T07:34:27;23.27;;;15.27;;
57225;SDS011;43082;43.568;22.256;2024-03-23T07:36:52;19.70;;;11.40;;
57225;SDS011;43082;43.568;22.256;2024-03-23T07:39:17;20.75;;;12.07;;
57225;SDS011;43082;43.568;22.256;2024-03-23T07:41:46;14.93;;;8.63;;
57225;SDS011;43082;43.568;22.256;2024-03-23T07:44:12;13.90;;;8.13;;
57225;SDS011;43082;43.568;22.256;2024-03-23T07:46:37;16.42;;;8.18;;
57225;SDS011;43082;43.568;22.256;2024-03-23T07:49:06;18.60;;;10.55;;
57225;SDS011;43082;43.568;22.256;2024-03-23T07:51:31;20.90;;;14.88;;
57225;SDS011;43082;43.568;22.256;2024-03-23T07:53:57;13.52;;;8.07;;
57225;SDS011;43082;43.568;22.256;2024-03-23T07:56:23;12.30;;;7.75;;
57225;SDS011;43082;43.568;22.256;2024-03-23T07:58:49;15.30;;;8.52;;
57225;SDS011;43082;43.568;22.256;2024-03-23T08:01:15;13.27;;;7.22;;
57225;SDS011;43082;43.568;22.256;2024-03-23T08:03:42;15.13;;;7.90;;
57225;SDS011;43082;43.568;22.256;2024-03-23T08:08:41;14.88;;;7.85;;
57225;SDS011;43082;43.568;22.256;2024-03-23T08:11:07;12.82;;;7.78;;
57225;SDS011;43082;43.568;22.256;2024-03-23T08:13:33;13.40;;;8.98;;
57225;SDS011;43082;43.568;22.256;2024-03-23T08:16:00;9.73;;;5.50;;
57225;SDS011;43082;43.568;22.256;2024-03-23T08:18:26;9.85;;;6.32;;
57225;SDS011;43082;43.568;22.256;2024-03-23T08:21:13;11.55;;;6.15;;
57225;SDS011;43082;43.568;22.256;2024-03-23T08:23:37;13.13;;;5.70;;
57225;SDS011;43082;43.568;22.256;2024-03-23T08:26:07;10.93;;;5.93;;
57225;SDS011;43082;43.568;22.256;2024-03-23T08:28:36;9.10;;;5.40;;
57225;SDS011;43082;43.568;22.256;2024-03-23T08:31:12;9.15;;;5.32;;
57225;SDS011;43082;43.568;22.256;2024-03-23T08:33:38;14.52;;;8.85;;
57225;SDS011;43082;43.568;22.256;2024-03-23T08:36:07;13.48;;;7.28;;
57225;SDS011;43082;43.568;22.256;2024-03-23T08:38:33;10.85;;;6.05;;
57225;SDS011;43082;43.568;22.256;2024-03-23T08:41:03;10.45;;;5.65;;
57225;SDS011;43082;43.568;22.256;2024-03-23T08:43:30;14.05;;;5.90;;
57225;SDS011;43082;43.568;22.256;2024-03-23T08:46:03;9.25;;;5.47;;
57225;SDS011;43082;43.568;22.256;2024-03-23T08:48:30;10.98;;;5.88;;
57225;SDS011;43082;43.568;22.256;2024-03-23T08:51:05;14.77;;;6.93;;
57225;SDS011;43082;43.568;22.256;2024-03-23T08:53:31;14.75;;;6.80;;
57225;SDS011;43082;43.568;22.256;2024-03-23T08:55:57;12.68;;;5.43;;
57225;SDS011;43082;43.568;22.256;2024-03-23T08:58:24;8.35;;;4.43;;
57225;SDS011;43082;43.568;22.256;2024-03-23T09:00:50;8.15;;;5.15;;
57225;SDS011;43082;43.568;22.256;2024-03-23T09:03:21;7.82;;;4.18;;
57225;SDS011;43082;43.568;22.256;2024-03-23T09:05:50;13.00;;;5.63;;
57225;SDS011;43082;43.568;22.256;2024-03-23T09:08:16;10.25;;;5.88;;
57225;SDS011;43082;43.568;22.256;2024-03-23T09:10:42;8.32;;;4.28;;
57225;SDS011;43082;43.568;22.256;2024-03-23T09:13:08;7.55;;;4.25;;
57225;SDS011;43082;43.568;22.256;2024-03-23T09:15:34;10.45;;;5.80;;
57225;SDS011;43082;43.568;22.256;2024-03-23T09:18:00;10.77;;;7.05;;
57225;SDS011;43082;43.568;22.256;2024-03-23T09:20:26;11.73;;;6.63;;
57225;SDS011;43082;43.568;22.256;2024-03-23T09:22:51;15.10;;;7.00;;
57225;SDS011;43082;43.568;22.256;2024-03-23T09:25:16;11.25;;;6.80;;
57225;SDS011;43082;43.568;22.256;2024-03-23T09:27:42;11.10;;;5.60;;
57225;SDS011;43082;43.568;22.256;2024-03-23T09:30:07;12.50;;;7.70;;
57225;SDS011;43082;43.568;22.256;2024-03-23T09:32:35;12.52;;;7.15;;
57225;SDS011;43082;43.568;22.256;2024-03-23T09:35:00;11.60;;;6.40;;
57225;SDS011;43082;43.568;22.256;2024-03-23T09:37:26;11.40;;;5.85;;
57225;SDS011;43082;43.568;22.256;2024-03-23T09:39:51;9.98;;;5.57;;
57225;SDS011;43082;43.568;22.256;2024-03-23T09:42:16;10.27;;;5.75;;
57225;SDS011;43082;43.568;22.256;2024-03-23T09:44:42;12.52;;;7.10;;
57225;SDS011;43082;43.568;22.256;2024-03-23T09:47:08;9.48;;;4.65;;
57225;SDS011;43082;43.568;22.256;2024-03-23T09:49:34;10.52;;;5.03;;
57225;SDS011;43082;43.568;22.256;2024-03-23T09:52:01;8.63;;;5.00;;
57225;SDS011;43082;43.568;22.256;2024-03-23T09:54:28;10.25;;;4.43;;
57225;SDS011;43082;43.568;22.256;2024-03-23T09:56:53;9.52;;;5.07;;
57225;SDS011;43082;43.568;22.256;2024-03-23T09:59:19;9.25;;;5.45;;
57225;SDS011;43082;43.568;22.256;2024-03-23T10:01:44;9.55;;;4.45;;
57225;SDS011;43082;43.568;22.256;2024-03-23T10:04:10;9.13;;;5.13;;
57225;SDS011;43082;43.568;22.256;2024-03-23T10:06:35;8.32;;;4.40;;
57225;SDS011;43082;43.568;22.256;2024-03-23T10:09:01;10.90;;;4.93;;
57225;SDS011;43082;43.568;22.256;2024-03-23T10:11:27;8.88;;;4.05;;
57225;SDS011;43082;43.568;22.256;2024-03-23T10:13:54;9.80;;;4.03;;
57225;SDS011;43082;43.568;22.256;2024-03-23T10:16:22;14.63;;;3.53;;
57225;SDS011;43082;43.568;22.256;2024-03-23T10:18:48;9.10;;;5.10;;
57225;SDS011;43082;43.568;22.256;2024-03-23T10:21:15;8.27;;;3.65;;
57225;SDS011;43082;43.568;22.256;2024-03-23T10:23:41;9.55;;;5.18;;
57225;SDS011;43082;43.568;22.256;2024-03-23T10:28:52;8.57;;;5.03;;
57225;SDS011;43082;43.568;22.256;2024-03-23T10:31:24;11.02;;;5.57;;
57225;SDS011;43082;43.568;22.256;2024-03-23T10:33:50;11.82;;;4.32;;
57225;SDS011;43082;43.568;22.256;2024-03-23T10:36:15;7.43;;;4.07;;
57225;SDS011;43082;43.568;22.256;2024-03-23T10:38:42;12.57;;;4.53;;
57225;SDS011;43082;43.568;22.256;2024-03-23T10:41:09;9.40;;;3.95;;
57225;SDS011;43082;43.568;22.256;2024-03-23T10:43:38;8.63;;;4.60;;
57225;SDS011;43082;43.568;22.256;2024-03-23T10:46:04;6.32;;;3.30;;
57225;SDS011;43082;43.568;22.256;2024-03-23T10:48:30;7.50;;;3.65;;
57225;SDS011;43082;43.568;22.256;2024-03-23T10:50:57;9.48;;;4.10;;
57225;SDS011;43082;43.568;22.256;2024-03-23T10:53:23;8.73;;;4.15;;
57225;SDS011;43082;43.568;22.256;2024-03-23T10:55:50;8.50;;;4.25;;
57225;SDS011;43082;43.568;22.256;2024-03-23T10:58:17;10.35;;;5.15;;
57225;SDS011;43082;43.568;22.256;2024-03-23T11:00:45;12.35;;;5.25;;
57225;SDS011;43082;43.568;22.256;2024-03-23T11:03:29;11.07;;;4.70;;
57225;SDS011;43082;43.568;22.256;2024-03-23T11:05:56;7.15;;;3.40;;
57225;SDS011;43082;43.568;22.256;2024-03-23T11:08:37;8.07;;;3.50;;
57225;SDS011;43082;43.568;22.256;2024-03-23T11:11:19;8.02;;;4.10;;
57225;SDS011;43082;43.568;22.256;2024-03-23T11:13:49;9.93;;;4.85;;
57225;SDS011;43082;43.568;22.256;2024-03-23T11:18:42;7.15;;;4.30;;
57225;SDS011;43082;43.568;22.256;2024-03-23T11:21:08;8.88;;;3.67;;
57225;SDS011;43082;43.568;22.256;2024-03-23T11:23:34;8.52;;;3.90;;
57225;SDS011;43082;43.568;22.256;2024-03-23T11:26:00;7.32;;;2.97;;
57225;SDS011;43082;43.568;22.256;2024-03-23T11:28:25;6.32;;;2.97;;
57225;SDS011;43082;43.568;22.256;2024-03-23T11:30:51;9.23;;;4.30;;
57225;SDS011;43082;43.568;22.256;2024-03-23T11:33:16;16.77;;;9.32;;
57225;SDS011;43082;43.568;22.256;2024-03-23T11:35:42;14.63;;;6.53;;
57225;SDS011;43082;43.568;22.256;2024-03-23T11:40:37;13.07;;;8.55;;
57225;SDS011;43082;43.568;22.256;2024-03-23T11:43:04;11.90;;;6.57;;
57225;SDS011;43082;43.568;22.256;2024-03-23T11:45:43;20.23;;;12.18;;
57225;SDS011;43082;43.568;22.256;2024-03-23T11:50:47;22.40;;;14.15;;
57225;SDS011;43082;43.568;22.256;2024-03-23T11:53:20;13.25;;;6.70;;
57225;SDS011;43082;43.568;22.256;2024-03-23T11:55:59;15.23;;;9.18;;
57225;SDS011;43082;43.568;22.256;2024-03-23T11:58:26;13.68;;;7.47;;
57225;SDS011;43082;43.568;22.256;2024-03-23T12:03:25;8.73;;;4.82;;
57225;SDS011;43082;43.568;22.256;2024-03-23T12:05:52;13.18;;;7.88;;
57225;SDS011;43082;43.568;22.256;2024-03-23T12:08:19;9.82;;;5.15;;
57225;SDS011;43082;43.568;22.256;2024-03-23T12:10:53;12.05;;;6.22;;
57225;SDS011;43082;43.568;22.256;2024-03-23T12:13:19;13.25;;;6.55;;
57225;SDS011;43082;43.568;22.256;2024-03-23T12:15:46;15.07;;;11.13;;
57225;SDS011;43082;43.568;22.256;2024-03-23T12:18:12;7.25;;;3.75;;
57225;SDS011;43082;43.568;22.256;2024-03-23T12:20:38;9.23;;;5.30;;
57225;SDS011;43082;43.568;22.256;2024-03-23T12:23:11;10.30;;;4.10;;
57225;SDS011;43082;43.568;22.256;2024-03-23T12:25:37;8.77;;;5.30;;
57225;SDS011;43082;43.568;22.256;2024-03-23T12:28:03;7.75;;;3.90;;
57225;SDS011;43082;43.568;22.256;2024-03-23T12:30:31;6.65;;;3.17;;
57225;SDS011;43082;43.568;22.256;2024-03-23T12:33:00;8.13;;;4.30;;
57225;SDS011;43082;43.568;22.256;2024-03-23T12:35:26;10.82;;;4.60;;
57225;SDS011;43082;43.568;22.256;2024-03-23T12:37:51;11.90;;;6.05;;
57225;SDS011;43082;43.568;22.256;2024-03-23T12:40:16;11.43;;;5.32;;
57225;SDS011;43082;43.568;22.256;2024-03-23T12:42:42;8.95;;;3.60;;
57225;SDS011;43082;43.568;22.256;2024-03-23T12:45:07;6.97;;;3.80;;
57225;SDS011;43082;43.568;22.256;2024-03-23T12:47:33;8.43;;;4.30;;
57225;SDS011;43082;43.568;22.256;2024-03-23T12:49:58;7.85;;;4.20;;
57225;SDS011;43082;43.568;22.256;2024-03-23T12:52:24;8.15;;;3.42;;
57225;SDS011;43082;43.568;22.256;2024-03-23T12:54:53;9.60;;;4.45;;
57225;SDS011;43082;43.568;22.256;2024-03-23T12:57:21;8.32;;;4.10;;
57225;SDS011;43082;43.568;22.256;2024-03-23T12:59:47;7.68;;;3.88;;
57225;SDS011;43082;43.568;22.256;2024-03-23T13:02:15;13.52;;;3.45;;
57225;SDS011;43082;43.568;22.256;2024-03-23T13:04:41;8.18;;;4.25;;
57225;SDS011;43082;43.568;22.256;2024-03-23T13:07:07;6.40;;;2.78;;
57225;SDS011;43082;43.568;22.256;2024-03-23T13:09:32;12.82;;;7.45;;
57225;SDS011;43082;43.568;22.256;2024-03-23T13:11:58;9.85;;;4.07;;
57225;SDS011;43082;43.568;22.256;2024-03-23T13:14:23;7.65;;;3.90;;
57225;SDS011;43082;43.568;22.256;2024-03-23T13:16:48;9.18;;;4.97;;
57225;SDS011;43082;43.568;22.256;2024-03-23T13:19:14;7.90;;;3.85;;
57225;SDS011;43082;43.568;22.256;2024-03-23T13:21:39;8.60;;;3.33;;
57225;SDS011;43082;43.568;22.256;2024-03-23T13:24:05;7.03;;;3.38;;
57225;SDS011;43082;43.568;22.256;2024-03-23T13:26:31;7.00;;;3.20;;
57225;SDS011;43082;43.568;22.256;2024-03-23T13:28:56;7.50;;;3.55;;
57225;SDS011;43082;43.568;22.256;2024-03-23T13:31:21;8.20;;;4.10;;
57225;SDS011;43082;43.568;22.256;2024-03-23T13:33:47;7.97;;;3.15;;
57225;SDS011;43082;43.568;22.256;2024-03-23T13:36:12;6.95;;;3.25;;
57225;SDS011;43082;43.568;22.256;2024-03-23T13:38:38;9.18;;;3.50;;
57225;SDS011;43082;43.568;22.256;2024-03-23T13:41:04;10.05;;;4.00;;
57225;SDS011;43082;43.568;22.256;2024-03-23T13:43:31;8.25;;;3.65;;
57225;SDS011;43082;43.568;22.256;2024-03-23T13:45:57;6.43;;;3.08;;
57225;SDS011;43082;43.568;22.256;2024-03-23T13:48:24;6.65;;;3.22;;
57225;SDS011;43082;43.568;22.256;2024-03-23T13:50:57;8.90;;;3.83;;
57225;SDS011;43082;43.568;22.256;2024-03-23T13:53:24;9.73;;;5.35;;
57225;SDS011;43082;43.568;22.256;2024-03-23T13:55:49;11.50;;;4.00;;
57225;SDS011;43082;43.568;22.256;2024-03-23T13:58:15;9.45;;;4.10;;
57225;SDS011;43082;43.568;22.256;2024-03-23T14:00:41;15.75;;;6.70;;
57225;SDS011;43082;43.568;22.256;2024-03-23T14:03:10;11.18;;;6.00;;
57225;SDS011;43082;43.568;22.256;2024-03-23T14:05:36;20.13;;;12.77;;
57225;SDS011;43082;43.568;22.256;2024-03-23T14:08:04;10.88;;;5.25;;
57225;SDS011;43082;43.568;22.256;2024-03-23T14:10:30;8.25;;;2.95;;
57225;SDS011;43082;43.568;22.256;2024-03-23T14:12:55;5.82;;;2.63;;
57225;SDS011;43082;43.568;22.256;2024-03-23T14:15:21;12.85;;;6.05;;
57225;SDS011;43082;43.568;22.256;2024-03-23T14:17:46;10.18;;;5.22;;
57225;SDS011;43082;43.568;22.256;2024-03-23T14:20:12;13.93;;;8.00;;
57225;SDS011;43082;43.568;22.256;2024-03-23T14:22:38;10.75;;;6.00;;
57225;SDS011;43082;43.568;22.256;2024-03-23T14:25:06;11.35;;;6.45;;
57225;SDS011;43082;43.568;22.256;2024-03-23T14:27:32;14.50;;;8.82;;
57225;SDS011;43082;43.568;22.256;2024-03-23T14:29:57;13.93;;;5.95;;
57225;SDS011;43082;43.568;22.256;2024-03-23T14:32:23;12.07;;;3.88;;
57225;SDS011;43082;43.568;22.256;2024-03-23T14:34:48;7.30;;;3.72;;
57225;SDS011;43082;43.568;22.256;2024-03-23T14:37:14;11.05;;;5.25;;
57225;SDS011;43082;43.568;22.256;2024-03-23T14:39:41;7.40;;;3.90;;
57225;SDS011;43082;43.568;22.256;2024-03-23T14:42:07;9.23;;;3.72;;
57225;SDS011;43082;43.568;22.256;2024-03-23T14:44:35;9.23;;;4.32;;
57225;SDS011;43082;43.568;22.256;2024-03-23T14:47:01;9.27;;;4.15;;
57225;SDS011;43082;43.568;22.256;2024-03-23T14:49:26;12.50;;;7.80;;
57225;SDS011;43082;43.568;22.256;2024-03-23T14:51:51;12.10;;;6.35;;
57225;SDS011;43082;43.568;22.256;2024-03-23T14:54:17;10.10;;;5.20;;
57225;SDS011;43082;43.568;22.256;2024-03-23T14:56:42;13.05;;;5.82;;
57225;SDS011;43082;43.568;22.256;2024-03-23T14:59:08;11.32;;;6.07;;
57225;SDS011;43082;43.568;22.256;2024-03-23T15:01:33;9.70;;;4.80;;
57225;SDS011;43082;43.568;22.256;2024-03-23T15:03:59;9.50;;;5.00;;
57225;SDS011;43082;43.568;22.256;2024-03-23T15:06:25;9.07;;;5.03;;
57225;SDS011;43082;43.568;22.256;2024-03-23T15:08:50;10.60;;;5.03;;
57225;SDS011;43082;43.568;22.256;2024-03-23T15:11:16;12.88;;;9.18;;
57225;SDS011;43082;43.568;22.256;2024-03-23T15:13:44;9.95;;;5.63;;
57225;SDS011;43082;43.568;22.256;2024-03-23T15:16:09;13.02;;;6.85;;
57225;SDS011;43082;43.568;22.256;2024-03-23T15:18:35;12.98;;;8.50;;
57225;SDS011;43082;43.568;22.256;2024-03-23T15:21:01;14.18;;;8.57;;